Time;durP1;ratioP1;P1;durP2;ratioP2;P2;SDS_P1;SDS_P2;PMS_P1;PMS_P2;Temp;Humidity;BMP_temperature;BMP_pressure;BME280_temperature;BME280_humidity;BME280_pressure;Samples;Min_cycle;Max_cycle;Signal;HPM_P1;HPM_P2
2022/08/16 00:02:05;;;;;;;3.63;3.20;;;23.90;62.00;;;;;;5032285;28;20063;-35
2022/08/16 00:04:31;;;;;;;3.42;3.13;;;23.90;62.10;;;;;;5032074;28;20481;-35
2022/08/16 00:06:57;;;;;;;4.40;3.72;;;23.90;62.10;;;;;;5030868;28;20053;-34
2022/08/16 00:09:22;;;;;;;4.60;3.47;;;23.80;62.40;;;;;;5032128;28;20370;-36
2022/08/16 00:11:49;;;;;;;4.15;3.55;;;23.80;62.30;;;;;;5032354;28;20022;-36
2022/08/16 00:14:19;;;;;;;3.47;3.17;;;23.80;62.40;;;;;;5032377;28;20020;-36
2022/08/16 00:16:45;;;;;;;4.88;3.60;;;23.80;62.50;;;;;;5032057;28;20100;-35
2022/08/16 00:19:13;;;;;;;5.25;3.60;;;23.70;62.50;;;;;;5034561;28;20437;-36
2022/08/16 00:21:38;;;;;;;3.70;3.33;;;23.70;62.60;;;;;;5036287;28;20056;-35
2022/08/16 00:24:04;;;;;;;5.22;3.33;;;23.70;62.70;;;;;;5035941;28;20437;-35
2022/08/16 00:26:30;;;;;;;4.18;3.78;;;23.60;62.70;;;;;;5036224;28;20128;-35
2022/08/16 00:28:56;;;;;;;4.03;3.38;;;23.60;62.80;;;;;;5034411;28;20144;-35
2022/08/16 00:31:21;;;;;;;3.55;3.03;;;23.60;62.90;;;;;;5035890;28;20040;-35
2022/08/16 00:33:47;;;;;;;3.65;3.35;;;23.50;63.00;;;;;;5036009;28;20079;-35
2022/08/16 00:36:13;;;;;;;3.58;3.20;;;23.50;63.10;;;;;;5035996;28;20049;-34
2022/08/16 00:38:38;;;;;;;5.45;3.30;;;23.50;63.20;;;;;;5035707;28;20087;-35
2022/08/16 00:41:04;;;;;;;4.50;3.40;;;23.50;63.30;;;;;;5036117;28;20456;-36
2022/08/16 00:43:34;;;;;;;4.00;3.40;;;23.50;63.30;;;;;;5035884;28;20026;-36
2022/08/16 00:46:05;;;;;;;3.90;3.15;;;23.50;63.40;;;;;;5035897;28;20091;-34
2022/08/16 00:48:31;;;;;;;3.60;3.30;;;23.50;63.50;;;;;;5035505;28;20080;-34
2022/08/16 00:50:57;;;;;;;4.13;3.72;;;23.50;63.50;;;;;;5035767;28;20333;-35
2022/08/16 00:53:23;;;;;;;5.78;3.80;;;23.40;63.50;;;;;;5035382;28;20021;-36
2022/08/16 00:55:51;;;;;;;6.20;3.95;;;23.40;63.60;;;;;;5035300;28;20468;-35
2022/08/16 00:58:19;;;;;;;4.88;4.22;;;23.40;63.80;;;;;;5035523;28;20029;-36
2022/08/16 01:00:46;;;;;;;4.47;4.07;;;23.40;63.90;;;;;;5035532;28;20025;-35
2022/08/16 01:03:14;;;;;;;4.88;4.10;;;23.40;64.00;;;;;;5035682;28;20036;-36
2022/08/16 01:05:41;;;;;;;4.93;4.45;;;23.40;64.00;;;;;;5035040;28;20045;-35
2022/08/16 01:08:10;;;;;;;4.53;3.92;;;23.30;64.00;;;;;;5035501;28;20022;-35
2022/08/16 01:10:36;;;;;;;5.03;4.22;;;23.30;64.20;;;;;;5035288;28;20380;-35
2022/08/16 01:13:06;;;;;;;5.00;4.43;;;23.20;64.20;;;;;;5035128;28;20022;-36
2022/08/16 01:15:36;;;;;;;6.80;4.93;;;23.20;64.30;;;;;;5035078;28;20184;-35
2022/08/16 01:18:05;;;;;;;5.88;4.60;;;23.20;64.50;;;;;;5035022;28;20030;-35
2022/08/16 01:20:36;;;;;;;6.93;5.10;;;23.20;64.60;;;;;;5034899;28;20087;-35
2022/08/16 01:23:17;;;;;;;5.18;4.72;;;23.10;64.60;;;;;;5035293;28;20405;-35
2022/08/16 01:25:51;;;;;;;5.57;4.88;;;23.10;64.70;;;;;;5035150;28;20072;-35
2022/08/16 01:28:19;;;;;;;6.32;5.20;;;23.10;64.80;;;;;;5034745;28;20022;-36
2022/08/16 01:30:49;;;;;;;7.15;5.25;;;23.10;64.90;;;;;;5034152;28;20029;-34
2022/08/16 01:33:15;;;;;;;6.10;5.50;;;23.10;65.00;;;;;;5034973;28;20450;-41
2022/08/16 01:35:46;;;;;;;7.65;4.90;;;23.00;65.00;;;;;;5034839;28;20053;-35
2022/08/16 01:38:16;;;;;;;6.10;5.18;;;23.00;65.10;;;;;;5034658;28;20028;-45
2022/08/16 01:40:42;;;;;;;6.82;5.10;;;23.00;65.20;;;;;;5034952;28;20052;-35
2022/08/16 01:43:08;;;;;;;5.22;4.45;;;23.00;65.20;;;;;;5035067;28;20021;-35
2022/08/16 01:45:34;;;;;;;5.55;5.00;;;23.00;65.30;;;;;;5035091;28;20018;-35
2022/08/16 01:48:00;;;;;;;5.88;5.10;;;22.90;65.30;;;;;;5034735;28;20021;-35
2022/08/16 01:50:27;;;;;;;6.55;5.03;;;22.90;65.40;;;;;;5034616;28;20017;-35
2022/08/16 01:52:53;;;;;;;6.00;5.35;;;22.90;65.60;;;;;;5034488;28;20017;-35
2022/08/16 01:55:21;;;;;;;5.82;5.28;;;22.90;65.60;;;;;;5034312;28;20033;-35
2022/08/16 01:57:47;;;;;;;5.82;5.22;;;22.90;65.70;;;;;;5034585;28;20048;-35
2022/08/16 02:00:14;;;;;;;6.25;5.65;;;22.90;65.80;;;;;;5034276;28;20132;-35
2022/08/16 02:02:41;;;;;;;6.60;5.70;;;22.80;65.80;;;;;;5034230;28;20036;-35
2022/08/16 02:05:07;;;;;;;7.47;6.15;;;22.70;65.80;;;;;;5034348;28;20488;-34
2022/08/16 02:07:33;;;;;;;8.18;5.90;;;22.80;66.00;;;;;;5034326;28;20033;-35
2022/08/16 02:09:59;;;;;;;6.60;6.00;;;22.70;66.00;;;;;;5034230;28;20504;-35
2022/08/16 02:12:26;;;;;;;8.00;6.05;;;22.70;66.10;;;;;;5034134;28;20399;-35
2022/08/16 02:14:52;;;;;;;7.03;5.97;;;22.70;66.10;;;;;;5033918;28;20045;-35
2022/08/16 02:17:18;;;;;;;6.28;5.68;;;22.70;66.20;;;;;;5034251;28;20072;-35
2022/08/16 02:19:47;;;;;;;6.72;5.78;;;22.70;66.20;;;;;;5034138;28;20076;-35
2022/08/16 02:22:16;;;;;;;7.07;5.70;;;22.70;66.30;;;;;;5033650;28;20389;-35
2022/08/16 02:24:41;;;;;;;7.18;5.65;;;22.70;66.40;;;;;;5033972;28;20472;-33
2022/08/16 02:27:07;;;;;;;6.55;5.07;;;22.70;66.50;;;;;;5033802;28;20060;-36
2022/08/16 02:29:33;;;;;;;5.40;4.90;;;22.60;66.50;;;;;;5032336;28;20036;-36
2022/08/16 02:31:58;;;;;;;7.93;5.57;;;22.60;66.60;;;;;;5033585;28;20194;-36
2022/08/16 02:34:24;;;;;;;5.72;5.20;;;22.60;66.70;;;;;;5033902;28;20083;-34
2022/08/16 02:36:50;;;;;;;7.88;6.03;;;22.60;66.80;;;;;;5031893;28;20025;-35
2022/08/16 02:39:18;;;;;;;6.97;5.60;;;22.60;66.90;;;;;;5033379;28;20052;-35
2022/08/16 02:41:45;;;;;;;6.32;5.72;;;22.50;66.90;;;;;;5032638;28;20117;-36
2022/08/16 02:44:12;;;;;;;8.50;6.07;;;22.50;67.10;;;;;;5033427;28;20389;-36
2022/08/16 02:46:37;;;;;;;6.10;5.50;;;22.50;67.10;;;;;;5033748;28;20032;-35
2022/08/16 02:49:05;;;;;;;6.65;5.97;;;22.50;67.10;;;;;;5033139;28;20029;-36
2022/08/16 02:51:31;;;;;;;6.75;6.05;;;22.40;67.20;;;;;;5033473;28;20076;-35
2022/08/16 02:53:56;;;;;;;7.25;6.45;;;22.40;67.30;;;;;;5033244;28;20014;-35
2022/08/16 02:56:22;;;;;;;6.40;5.70;;;22.40;67.40;;;;;;5033146;28;20162;-36
2022/08/16 02:58:51;;;;;;;9.93;6.40;;;22.40;67.50;;;;;;5032994;28;20088;-35
2022/08/16 03:01:21;;;;;;;6.57;5.97;;;22.30;67.50;;;;;;5033187;28;20076;-35
2022/08/16 03:03:47;;;;;;;6.50;5.75;;;22.30;67.70;;;;;;5032964;28;20026;-35
2022/08/16 03:06:13;;;;;;;8.15;6.00;;;22.30;67.80;;;;;;5032982;28;20045;-35
2022/08/16 03:08:39;;;;;;;6.72;5.70;;;22.30;67.90;;;;;;5033027;28;20025;-35
2022/08/16 03:11:05;;;;;;;8.00;6.30;;;22.20;67.90;;;;;;5032771;28;20032;-35
2022/08/16 03:13:31;;;;;;;6.40;5.78;;;22.20;68.00;;;;;;5032846;28;20056;-35
2022/08/16 03:15:57;;;;;;;6.90;6.10;;;22.20;68.10;;;;;;5033103;28;20487;-35
2022/08/16 03:18:22;;;;;;;10.60;6.20;;;22.20;68.20;;;;;;5032677;28;20025;-36
2022/08/16 03:20:48;;;;;;;6.88;6.07;;;22.20;68.30;;;;;;5033010;28;20049;-36
2022/08/16 03:23:14;;;;;;;6.95;6.10;;;22.10;68.40;;;;;;5032788;28;20029;-35
2022/08/16 03:25:39;;;;;;;7.35;5.95;;;22.10;68.50;;;;;;5032718;28;20029;-35
2022/08/16 03:28:06;;;;;;;6.40;5.70;;;22.10;68.60;;;;;;5032686;28;20052;-35
2022/08/16 03:30:34;;;;;;;7.18;5.97;;;22.00;68.70;;;;;;5032486;28;20029;-34
2022/08/16 03:33:00;;;;;;;6.55;5.85;;;22.00;68.80;;;;;;5032640;28;20381;-36
2022/08/16 03:35:29;;;;;;;7.03;6.30;;;22.00;68.90;;;;;;5032721;28;20028;-35
2022/08/16 03:37:59;;;;;;;6.35;5.75;;;21.90;68.90;;;;;;5032794;28;20025;-35
2022/08/16 03:40:25;;;;;;;7.72;5.40;;;21.90;69.00;;;;;;5033017;28;20136;-35
2022/08/16 03:42:50;;;;;;;7.03;5.85;;;21.90;69.00;;;;;;5032857;28;20025;-35
2022/08/16 03:45:16;;;;;;;6.68;5.30;;;21.80;69.00;;;;;;5033342;28;20159;-36
2022/08/16 03:47:45;;;;;;;5.47;4.93;;;21.80;69.10;;;;;;5032875;28;20376;-33
2022/08/16 03:50:11;;;;;;;6.82;5.20;;;21.80;69.20;;;;;;5032377;28;20017;-34
2022/08/16 03:52:37;;;;;;;6.05;5.32;;;21.80;69.20;;;;;;5032843;28;20514;-35
2022/08/16 03:55:04;;;;;;;5.53;5.03;;;21.70;69.20;;;;;;5038829;28;20093;-34
2022/08/16 03:57:30;;;;;;;5.88;5.28;;;21.70;69.30;;;;;;5037317;28;20021;-34
2022/08/16 03:59:56;;;;;;;5.57;5.07;;;21.70;69.40;;;;;;5038768;28;20105;-34
2022/08/16 04:02:22;;;;;;;8.02;6.38;;;21.70;69.50;;;;;;5038980;28;20191;-34
2022/08/16 04:04:48;;;;;;;7.35;6.65;;;21.60;69.50;;;;;;5038436;28;20046;-34
2022/08/16 04:07:14;;;;;;;7.55;6.60;;;21.60;69.70;;;;;;5038725;28;20032;-34
2022/08/16 04:09:40;;;;;;;8.45;7.47;;;21.60;69.90;;;;;;5038601;28;20026;-34
2022/08/16 04:12:08;;;;;;;8.48;7.60;;;21.60;70.00;;;;;;5038761;28;20025;-35
2022/08/16 04:14:33;;;;;;;8.23;7.43;;;21.60;70.10;;;;;;5038756;28;20025;-34
2022/08/16 04:16:59;;;;;;;8.23;7.43;;;21.60;70.20;;;;;;5038993;28;20025;-34
2022/08/16 04:19:26;;;;;;;8.57;7.47;;;21.50;70.20;;;;;;5038804;28;20096;-34
2022/08/16 04:21:52;;;;;;;9.13;7.78;;;21.60;70.30;;;;;;5037542;28;20108;-34
2022/08/16 04:24:18;;;;;;;10.23;8.15;;;21.60;70.40;;;;;;5039025;28;20392;-34
2022/08/16 04:26:44;;;;;;;8.98;8.07;;;21.60;70.50;;;;;;5038864;28;20021;-34
2022/08/16 04:29:10;;;;;;;8.55;7.75;;;21.50;70.50;;;;;;5039037;28;20029;-34
2022/08/16 04:31:35;;;;;;;10.73;8.15;;;21.50;70.60;;;;;;5039165;28;20022;-34
2022/08/16 04:34:01;;;;;;;10.07;8.80;;;21.50;71.30;;;;;;5038767;28;20029;-35
2022/08/16 04:36:27;;;;;;;8.73;7.82;;;21.50;70.80;;;;;;5038849;28;20018;-35
2022/08/16 04:38:53;;;;;;;11.25;8.27;;;21.50;70.90;;;;;;5038893;28;20026;-34
2022/08/16 04:41:19;;;;;;;9.23;8.27;;;21.50;71.00;;;;;;5038655;28;20140;-34
2022/08/16 04:43:45;;;;;;;9.43;8.52;;;21.50;71.10;;;;;;5038447;28;20059;-38
2022/08/16 04:46:13;;;;;;;9.52;8.63;;;21.50;71.20;;;;;;5038502;28;20361;-36
2022/08/16 04:48:40;;;;;;;11.65;9.13;;;21.50;71.20;;;;;;5038137;28;20037;-35
2022/08/16 04:51:06;;;;;;;10.75;9.00;;;21.50;71.30;;;;;;5038451;28;20024;-34
2022/08/16 04:53:32;;;;;;;10.10;9.00;;;21.50;71.40;;;;;;5038348;28;20457;-34
2022/08/16 04:55:57;;;;;;;10.45;9.23;;;21.60;71.50;;;;;;5036832;28;20022;-34
2022/08/16 04:58:23;;;;;;;9.30;8.40;;;21.50;71.50;;;;;;5038363;28;20025;-34
2022/08/16 05:00:49;;;;;;;10.35;8.73;;;21.50;71.60;;;;;;5038412;28;20025;-34
2022/08/16 05:03:15;;;;;;;11.68;9.00;;;21.50;71.70;;;;;;5038446;28;20017;-34
2022/08/16 05:05:41;;;;;;;9.90;8.88;;;21.50;71.70;;;;;;5034791;28;20040;-34
2022/08/16 05:08:08;;;;;;;10.43;9.43;;;21.50;71.80;;;;;;5035071;28;20041;-34
2022/08/16 05:10:33;;;;;;;10.23;8.93;;;21.50;72.50;;;;;;5035224;28;20052;-35
2022/08/16 05:13:01;;;;;;;9.68;8.68;;;21.60;71.90;;;;;;5035206;28;20034;-34
2022/08/16 05:15:27;;;;;;;10.82;9.52;;;21.50;71.90;;;;;;5034918;28;20037;-34
2022/08/16 05:17:53;;;;;;;10.15;9.15;;;21.50;71.90;;;;;;5033946;28;20068;-34
2022/08/16 05:20:19;;;;;;;9.70;8.75;;;21.50;71.90;;;;;;5034876;28;20095;-35
2022/08/16 05:22:45;;;;;;;9.95;8.95;;;21.50;71.80;;;;;;5035274;28;20072;-42
2022/08/16 05:25:11;;;;;;;9.82;8.82;;;21.60;71.80;;;;;;5035384;28;20057;-35
2022/08/16 05:27:38;;;;;;;9.43;8.43;;;21.60;71.80;;;;;;5035421;28;20037;-35
2022/08/16 05:30:06;;;;;;;9.73;8.73;;;21.60;71.80;;;;;;5034955;28;20039;-37
2022/08/16 05:32:33;;;;;;;10.10;9.10;;;21.60;71.80;;;;;;5034985;28;20021;-35
2022/08/16 05:34:58;;;;;;;10.00;8.77;;;21.60;71.70;;;;;;5035007;28;20029;-35
2022/08/16 05:37:24;;;;;;;12.02;8.95;;;21.60;71.70;;;;;;5035166;28;20040;-44
2022/08/16 05:39:50;;;;;;;11.00;9.90;;;21.60;71.70;;;;;;5034984;28;20025;-35
2022/08/16 05:42:16;;;;;;;11.05;9.60;;;21.60;71.60;;;;;;5033483;28;20219;-36
2022/08/16 05:44:41;;;;;;;11.00;9.90;;;21.60;71.60;;;;;;5034575;28;20476;-35
2022/08/16 05:47:07;;;;;;;12.18;9.45;;;21.60;71.60;;;;;;5034729;28;20045;-35
2022/08/16 05:49:33;;;;;;;11.57;10.48;;;21.70;71.60;;;;;;5034756;28;20079;-36
2022/08/16 05:51:58;;;;;;;10.63;9.50;;;21.70;71.40;;;;;;5034406;28;20029;-35
2022/08/16 05:54:26;;;;;;;10.95;9.63;;;21.80;71.40;;;;;;5034773;28;20080;-35
2022/08/16 05:56:53;;;;;;;10.77;9.68;;;21.90;71.30;;;;;;5034535;28;20022;-35
2022/08/16 05:59:19;;;;;;;11.95;9.80;;;21.90;71.10;;;;;;5034348;28;20032;-35
2022/08/16 06:01:45;;;;;;;10.45;9.38;;;21.90;71.00;;;;;;5034634;28;20387;-37
2022/08/16 06:04:12;;;;;;;10.93;9.80;;;22.00;70.90;;;;;;5034221;28;20503;-35
2022/08/16 06:06:38;;;;;;;9.30;8.38;;;22.00;70.80;;;;;;5034095;28;20033;-35
2022/08/16 06:09:04;;;;;;;10.57;9.57;;;22.00;70.80;;;;;;5034452;28;20018;-35
2022/08/16 06:11:29;;;;;;;11.48;10.40;;;22.10;70.80;;;;;;5032719;28;20036;-35
2022/08/16 06:13:56;;;;;;;11.25;9.32;;;22.10;70.80;;;;;;5034061;28;20029;-34
2022/08/16 06:16:21;;;;;;;11.35;10.23;;;22.10;70.70;;;;;;5033982;28;20069;-34
2022/08/16 06:18:47;;;;;;;11.85;10.65;;;22.10;70.70;;;;;;5034233;28;20111;-35
2022/08/16 06:21:14;;;;;;;11.15;9.95;;;22.10;70.80;;;;;;5034130;28;20021;-34
2022/08/16 06:23:40;;;;;;;10.30;9.30;;;22.10;70.70;;;;;;5032641;28;20404;-34
2022/08/16 06:26:07;;;;;;;10.77;9.23;;;22.10;70.60;;;;;;5034014;28;20025;-34
2022/08/16 06:28:33;;;;;;;11.93;10.73;;;22.20;70.60;;;;;;5033977;28;20104;-33
2022/08/16 06:30:59;;;;;;;10.93;9.77;;;22.20;70.50;;;;;;5033723;28;20037;-34
2022/08/16 06:33:25;;;;;;;11.25;9.60;;;22.20;70.40;;;;;;5033688;28;20025;-35
2022/08/16 06:35:52;;;;;;;11.18;10.07;;;22.20;70.20;;;;;;5033451;28;20499;-34
2022/08/16 06:38:18;;;;;;;11.00;9.90;;;22.30;70.20;;;;;;5033646;28;20017;-35
2022/08/16 06:40:44;;;;;;;10.43;9.50;;;22.30;70.00;;;;;;5033558;28;20026;-35
2022/08/16 06:43:09;;;;;;;9.85;8.90;;;22.30;69.90;;;;;;5033398;28;20029;-34
2022/08/16 06:45:36;;;;;;;10.80;9.70;;;22.30;69.80;;;;;;5033245;28;20022;-33
2022/08/16 06:48:04;;;;;;;10.63;9.30;;;22.40;69.80;;;;;;5033426;28;20487;-34
2022/08/16 06:50:31;;;;;;;13.00;9.82;;;22.30;69.60;;;;;;5033195;28;20448;-34
2022/08/16 06:52:57;;;;;;;10.73;9.60;;;22.40;69.60;;;;;;5033154;28;20021;-34
2022/08/16 06:55:22;;;;;;;11.57;10.48;;;22.40;69.40;;;;;;5033338;28;20028;-33
2022/08/16 06:57:50;;;;;;;10.30;9.18;;;22.40;69.30;;;;;;5033187;28;20492;-34
2022/08/16 07:00:16;;;;;;;11.20;9.73;;;22.50;69.20;;;;;;5033391;28;20033;-34
2022/08/16 07:02:43;;;;;;;12.13;10.07;;;22.50;69.10;;;;;;5032981;28;20049;-33
2022/08/16 07:05:10;;;;;;;11.18;9.82;;;22.50;69.00;;;;;;5031553;28;20045;-33
2022/08/16 07:07:37;;;;;;;11.32;10.18;;;22.60;69.00;;;;;;5033236;28;20385;-34
2022/08/16 07:10:04;;;;;;;11.32;10.23;;;22.60;68.90;;;;;;5033402;28;20025;-35
2022/08/16 07:12:30;;;;;;;11.52;10.05;;;22.60;68.80;;;;;;5033112;28;20025;-35
2022/08/16 07:14:56;;;;;;;10.80;9.70;;;22.60;68.70;;;;;;5032939;28;20022;-35
2022/08/16 07:17:22;;;;;;;13.43;9.48;;;22.70;68.70;;;;;;5033439;28;20060;-35
2022/08/16 07:19:49;;;;;;;11.30;9.75;;;22.70;68.50;;;;;;5033566;28;20030;-35
2022/08/16 07:22:16;;;;;;;12.00;9.82;;;22.70;68.20;;;;;;5033167;28;20025;-35
2022/08/16 07:24:43;;;;;;;12.32;9.95;;;22.80;68.00;;;;;;5032955;28;20109;-35
2022/08/16 07:27:09;;;;;;;10.82;9.25;;;22.80;68.00;;;;;;5033070;28;20021;-36
2022/08/16 07:29:35;;;;;;;15.82;9.18;;;22.80;67.90;;;;;;5032250;28;20025;-34
2022/08/16 07:32:01;;;;;;;10.60;9.40;;;22.90;67.80;;;;;;5032966;28;20365;-35
2022/08/16 07:34:27;;;;;;;9.00;8.18;;;22.90;67.70;;;;;;5033202;28;20028;-35
2022/08/16 07:36:53;;;;;;;13.43;10.07;;;23.00;67.60;;;;;;5033169;28;20025;-36
2022/08/16 07:39:19;;;;;;;10.05;9.13;;;23.00;67.40;;;;;;5033161;28;20167;-34
2022/08/16 07:41:44;;;;;;;12.05;9.98;;;23.10;67.20;;;;;;5032932;28;20029;-35
2022/08/16 07:44:10;;;;;;;9.18;8.27;;;23.10;66.90;;;;;;5032950;28;20034;-35
2022/08/16 07:46:36;;;;;;;11.23;10.13;;;23.10;66.70;;;;;;5032981;28;20377;-35
2022/08/16 07:49:03;;;;;;;10.57;8.35;;;23.20;66.40;;;;;;5032886;28;20029;-35
2022/08/16 07:51:31;;;;;;;8.57;7.70;;;23.20;66.30;;;;;;5032996;28;20104;-36
2022/08/16 07:53:57;;;;;;;8.80;7.90;;;23.20;66.10;;;;;;5033022;28;20024;-35
2022/08/16 07:56:23;;;;;;;10.80;9.05;;;23.30;66.00;;;;;;5032638;28;20022;-35
2022/08/16 07:58:48;;;;;;;8.70;7.90;;;23.30;65.80;;;;;;5032584;28;20184;-36
2022/08/16 08:01:14;;;;;;;8.70;7.90;;;23.40;65.80;;;;;;5032510;28;20109;-35
2022/08/16 08:03:45;;;;;;;11.43;8.68;;;23.40;65.70;;;;;;5032468;28;20033;-34
2022/08/16 08:06:11;;;;;;;9.65;8.75;;;23.50;65.60;;;;;;5032453;28;20053;-36
2022/08/16 08:08:37;;;;;;;10.63;8.38;;;23.50;65.40;;;;;;5032394;28;20034;-35
2022/08/16 08:11:02;;;;;;;8.60;7.68;;;23.60;65.30;;;;;;5032417;28;20021;-36
2022/08/16 08:13:28;;;;;;;8.32;7.53;;;23.60;65.20;;;;;;5032679;28;20033;-35
2022/08/16 08:15:55;;;;;;;8.88;7.40;;;23.70;65.00;;;;;;5032437;28;20063;-36
2022/08/16 08:18:21;;;;;;;7.63;6.82;;;23.80;64.80;;;;;;5032485;28;20028;-36
2022/08/16 08:20:47;;;;;;;7.95;7.18;;;23.80;64.70;;;;;;5031401;28;20025;-36
2022/08/16 08:23:14;;;;;;;8.55;6.90;;;23.90;64.40;;;;;;5032526;28;20088;-35
2022/08/16 08:25:41;;;;;;;8.45;6.88;;;23.90;64.00;;;;;;5032376;28;20033;-37
2022/08/16 08:28:07;;;;;;;7.53;6.13;;;24.00;63.90;;;;;;5032307;28;20037;-35
2022/08/16 08:30:33;;;;;;;7.78;6.70;;;24.00;63.70;;;;;;5032248;28;20029;-35
2022/08/16 08:32:59;;;;;;;8.18;6.68;;;24.10;63.40;;;;;;5032583;28;20030;-36
2022/08/16 08:35:25;;;;;;;8.27;7.30;;;24.20;63.00;;;;;;5032236;28;20400;-36
2022/08/16 08:37:50;;;;;;;6.72;6.13;;;24.20;62.30;;;;;;5032042;28;20017;-36
2022/08/16 08:40:16;;;;;;;6.72;5.72;;;24.20;62.00;;;;;;5033003;28;20029;-35
2022/08/16 08:42:42;;;;;;;6.85;6.10;;;24.30;62.00;;;;;;5035794;28;20030;-34
2022/08/16 08:45:10;;;;;;;7.40;5.30;;;24.30;61.90;;;;;;5035798;28;20040;-36
2022/08/16 08:47:38;;;;;;;6.05;5.45;;;24.30;61.80;;;;;;5036019;28;20056;-34
2022/08/16 08:50:06;;;;;;;5.90;5.40;;;24.40;61.70;;;;;;5035632;28;20057;-35
2022/08/16 08:52:32;;;;;;;5.72;5.20;;;24.50;61.60;;;;;;5035970;28;20018;-35
2022/08/16 08:54:58;;;;;;;6.55;5.85;;;24.60;61.50;;;;;;5035651;28;20032;-36
2022/08/16 08:57:24;;;;;;;7.07;6.38;;;24.70;61.40;;;;;;5036035;28;20022;-36
2022/08/16 08:59:50;;;;;;;7.70;6.53;;;24.70;61.10;;;;;;5035688;28;20033;-36
2022/08/16 09:02:16;;;;;;;6.63;6.03;;;24.80;61.20;;;;;;5035636;28;20032;-35
2022/08/16 09:04:46;;;;;;;8.77;6.90;;;24.80;61.20;;;;;;5035203;28;20080;-35
2022/08/16 09:07:11;;;;;;;8.20;6.38;;;24.90;61.10;;;;;;5035588;28;20026;-36
2022/08/16 09:09:37;;;;;;;7.57;6.78;;;24.90;61.10;;;;;;5035083;28;20492;-35
2022/08/16 09:12:04;;;;;;;10.60;6.15;;;25.00;61.10;;;;;;5035478;28;20366;-35
2022/08/16 09:14:31;;;;;;;6.30;5.55;;;25.00;61.00;;;;;;5033835;28;20052;-36
2022/08/16 09:16:57;;;;;;;7.35;6.65;;;25.10;61.00;;;;;;5035580;28;20100;-36
2022/08/16 09:19:22;;;;;;;7.82;6.35;;;25.10;60.80;;;;;;5035022;28;20068;-36
2022/08/16 09:21:49;;;;;;;6.95;5.97;;;25.10;60.70;;;;;;5035198;28;20461;-35
2022/08/16 09:24:16;;;;;;;6.30;5.68;;;25.20;60.60;;;;;;5035598;28;20031;-35
2022/08/16 09:26:42;;;;;;;5.85;5.30;;;25.20;60.50;;;;;;5035026;28;20040;-34
2022/08/16 09:29:08;;;;;;;7.40;5.70;;;25.30;60.40;;;;;;5034946;28;20116;-35
2022/08/16 09:31:34;;;;;;;6.20;5.35;;;25.40;60.30;;;;;;5034938;28;20135;-34
2022/08/16 09:34:01;;;;;;;5.60;5.10;;;25.40;60.10;;;;;;5035365;28;20026;-35
2022/08/16 09:36:28;;;;;;;6.93;5.32;;;25.50;60.10;;;;;;5035151;28;20025;-35
2022/08/16 09:38:55;;;;;;;5.22;4.57;;;25.50;59.90;;;;;;5034915;28;20021;-35
2022/08/16 09:41:22;;;;;;;6.25;5.00;;;25.60;59.80;;;;;;5035113;28;20133;-35
2022/08/16 09:43:47;;;;;;;6.43;5.63;;;25.70;59.70;;;;;;5034976;28;20457;-34
2022/08/16 09:46:13;;;;;;;5.35;4.63;;;25.80;59.60;;;;;;5035017;28;20136;-36
2022/08/16 09:48:40;;;;;;;5.93;4.95;;;25.90;59.50;;;;;;5034443;28;20136;-36
2022/08/16 09:51:10;;;;;;;8.20;5.25;;;25.90;59.20;;;;;;5034208;28;20049;-37
2022/08/16 09:53:37;;;;;;;6.20;5.22;;;26.00;58.90;;;;;;5034430;28;20017;-37
2022/08/16 09:56:08;;;;;;;8.45;5.40;;;26.10;58.90;;;;;;5034576;28;20022;-35
2022/08/16 09:58:35;;;;;;;7.88;5.43;;;26.10;58.70;;;;;;5034190;28;20018;-34
2022/08/16 10:01:00;;;;;;;5.68;5.03;;;26.10;58.60;;;;;;5034111;28;20032;-35
2022/08/16 10:03:26;;;;;;;5.85;5.00;;;26.10;58.40;;;;;;5034215;28;20021;-35
2022/08/16 10:05:51;;;;;;;5.00;4.50;;;26.00;58.30;;;;;;5034107;28;20069;-35
2022/08/16 10:08:17;;;;;;;6.80;5.30;;;26.10;58.30;;;;;;5034364;28;20033;-34
2022/08/16 10:13:10;;;;;;;5.90;5.10;;;26.10;58.20;;;;;;5033861;28;20136;-35
2022/08/16 10:13:32;;;;;;;7.38;6.20;;;26.20;58.00;;;;;;5033927;28;20195;-35
2022/08/16 10:15:58;;;;;;;6.97;5.80;;;26.20;57.80;;;;;;5034501;28;20025;-35
2022/08/16 10:18:26;;;;;;;7.25;4.78;;;26.30;57.80;;;;;;5033818;28;20025;-35
2022/08/16 10:20:52;;;;;;;4.90;4.40;;;26.30;57.80;;;;;;5034017;28;20030;-35
2022/08/16 10:23:18;;;;;;;4.82;4.25;;;26.30;57.60;;;;;;5033739;28;20033;-34
2022/08/16 10:25:45;;;;;;;5.32;4.80;;;26.40;57.60;;;;;;5032400;28;20036;-34
2022/08/16 10:28:12;;;;;;;8.60;5.18;;;26.40;57.40;;;;;;5033748;28;20068;-37
2022/08/16 10:30:42;;;;;;;7.63;5.75;;;26.50;57.10;;;;;;5033424;28;20061;-34
2022/08/16 10:33:09;;;;;;;6.32;5.15;;;26.60;56.90;;;;;;5034029;28;20473;-34
2022/08/16 10:35:34;;;;;;;6.88;5.72;;;26.60;56.70;;;;;;5033732;28;20384;-34
2022/08/16 10:38:00;;;;;;;10.02;6.35;;;26.70;56.60;;;;;;5033648;28;20037;-35
2022/08/16 10:40:26;;;;;;;5.88;4.95;;;26.80;56.40;;;;;;5032417;28;20029;-35
2022/08/16 10:42:52;;;;;;;7.78;5.15;;;26.80;56.40;;;;;;5033769;28;20044;-35
2022/08/16 10:45:18;;;;;;;6.90;5.18;;;26.80;56.30;;;;;;5033680;28;20038;-34
2022/08/16 10:47:44;;;;;;;7.95;5.47;;;26.90;56.20;;;;;;5033759;28;20044;-35
2022/08/16 10:50:11;;;;;;;6.25;5.60;;;27.00;56.10;;;;;;5033460;28;20489;-35
2022/08/16 10:52:37;;;;;;;5.40;4.90;;;27.00;55.80;;;;;;5033163;28;20116;-34
2022/08/16 10:55:06;;;;;;;7.00;5.05;;;27.10;55.90;;;;;;5033335;28;20097;-36
2022/08/16 10:57:32;;;;;;;5.45;4.85;;;27.10;55.80;;;;;;5033224;28;20441;-34
2022/08/16 10:59:58;;;;;;;6.45;4.70;;;27.20;55.80;;;;;;5033188;28;20046;-35
2022/08/16 11:02:24;;;;;;;6.45;5.70;;;27.20;55.30;;;;;;5032726;28;20030;-35
2022/08/16 11:04:51;;;;;;;5.30;4.80;;;27.20;55.00;;;;;;5032838;28;20509;-34
2022/08/16 11:07:16;;;;;;;4.70;4.30;;;27.30;54.80;;;;;;5033270;28;20029;-34
2022/08/16 11:09:42;;;;;;;6.30;4.65;;;27.40;54.80;;;;;;5032801;28;20036;-34
2022/08/16 11:12:08;;;;;;;7.60;5.40;;;27.40;54.60;;;;;;5032999;28;20440;-35
2022/08/16 11:14:34;;;;;;;5.93;4.60;;;27.50;53.90;;;;;;5033097;28;20022;-33
2022/08/16 11:17:02;;;;;;;4.97;4.20;;;27.60;53.80;;;;;;5032847;28;20076;-35
2022/08/16 11:19:29;;;;;;;6.78;4.40;;;27.60;53.80;;;;;;5033184;28;20029;-35
2022/08/16 11:21:55;;;;;;;4.75;4.13;;;27.70;53.70;;;;;;5032938;28;20037;-37
2022/08/16 11:24:21;;;;;;;4.45;4.05;;;27.70;53.40;;;;;;5032917;28;20088;-35
2022/08/16 11:26:49;;;;;;;5.82;4.28;;;27.90;53.10;;;;;;5033177;28;20464;-35
2022/08/16 11:29:15;;;;;;;4.05;3.30;;;27.90;52.40;;;;;;5033031;28;20074;-35
2022/08/16 11:31:41;;;;;;;4.60;3.90;;;27.90;52.20;;;;;;5032743;28;20520;-35
2022/08/16 11:34:07;;;;;;;4.97;3.58;;;27.90;52.00;;;;;;5032650;28;20477;-35
2022/08/16 11:36:32;;;;;;;6.57;4.20;;;27.90;51.90;;;;;;5032732;28;20037;-36
2022/08/16 11:39:01;;;;;;;5.22;4.10;;;28.00;52.00;;;;;;5032598;28;20044;-35
2022/08/16 11:41:27;;;;;;;5.10;4.45;;;28.10;52.20;;;;;;5032855;28;20476;-35
2022/08/16 11:43:53;;;;;;;4.50;4.10;;;28.10;52.00;;;;;;5032992;28;20029;-35
2022/08/16 11:46:19;;;;;;;4.53;4.13;;;28.20;52.10;;;;;;5032724;28;20048;-35
2022/08/16 11:48:46;;;;;;;5.45;3.88;;;28.30;52.00;;;;;;5032728;28;20025;-35
2022/08/16 11:51:12;;;;;;;5.00;4.53;;;28.40;52.00;;;;;;5032739;28;20408;-35
2022/08/16 11:53:38;;;;;;;7.28;4.38;;;28.50;51.90;;;;;;5032306;28;20032;-35
2022/08/16 11:56:04;;;;;;;5.70;4.53;;;28.60;51.80;;;;;;5032633;28;20425;-35
2022/08/16 11:58:30;;;;;;;5.30;4.63;;;28.60;51.70;;;;;;5032523;28;20443;-35
2022/08/16 12:00:57;;;;;;;6.50;4.88;;;28.70;51.70;;;;;;5032641;28;20113;-36
2022/08/16 12:03:26;;;;;;;6.45;4.80;;;28.80;51.60;;;;;;5032609;28;20377;-35
2022/08/16 12:05:52;;;;;;;7.05;5.20;;;28.80;51.50;;;;;;5032167;28;20056;-36
2022/08/16 12:08:19;;;;;;;5.75;4.80;;;28.90;51.40;;;;;;5032738;28;20496;-36
2022/08/16 12:10:45;;;;;;;5.22;4.50;;;28.90;51.10;;;;;;5032652;28;20030;-36
2022/08/16 12:13:12;;;;;;;6.35;4.03;;;28.90;51.10;;;;;;5032441;28;20030;-36
2022/08/16 12:15:39;;;;;;;4.90;4.40;;;29.00;51.10;;;;;;5035851;28;20025;-35
2022/08/16 12:18:05;;;;;;;5.15;4.43;;;28.90;50.90;;;;;;5036673;28;20049;-37
2022/08/16 12:20:37;;;;;;;6.40;4.72;;;28.90;50.70;;;;;;5036483;28;20061;-36
2022/08/16 12:23:04;;;;;;;5.70;4.68;;;28.80;50.70;;;;;;5036441;28;20026;-36
2022/08/16 12:25:32;;;;;;;6.60;4.40;;;28.80;50.70;;;;;;5036142;28;20052;-36
2022/08/16 12:27:58;;;;;;;4.88;4.38;;;28.80;50.70;;;;;;5035994;28;20033;-36
2022/08/16 12:30:28;;;;;;;4.80;3.80;;;28.80;50.60;;;;;;5036333;28;20067;-35
2022/08/16 12:32:58;;;;;;;4.97;3.97;;;28.70;50.80;;;;;;5034787;28;20443;-37
2022/08/16 12:35:26;;;;;;;4.93;4.15;;;28.60;51.00;;;;;;5036523;28;20108;-36
2022/08/16 12:37:52;;;;;;;4.95;4.03;;;28.60;51.20;;;;;;5036333;28;20068;-36
2022/08/16 12:40:31;;;;;;;7.15;4.93;;;28.50;51.40;;;;;;5036194;28;20029;-36